createdAt,value
2022-09-29T00:00:10.868Z,57.51
2022-09-29T00:01:14.384Z,57.52
2022-09-29T00:02:17.960Z,57.54
2022-09-29T00:03:21.307Z,57.51
2022-09-29T00:04:23.433Z,57.46
2022-09-29T00:05:26.896Z,57.45
2022-09-29T00:06:29.437Z,57.41
2022-09-29T00:07:31.421Z,57.41
2022-09-29T00:08:33.384Z,57.36
2022-09-29T00:09:35.385Z,57.35
2022-09-29T00:10:41.612Z,57.35
2022-09-29T00:11:44.436Z,57.36
2022-09-29T00:12:46.402Z,57.41
2022-09-29T00:13:48.532Z,57.40
2022-09-29T00:14:50.687Z,57.46
2022-09-29T00:15:57.066Z,57.47
2022-09-29T00:16:59.886Z,57.44
2022-09-29T00:18:13.735Z,57.41
2022-09-29T00:19:05.987Z,57.40
2022-09-29T00:20:09.145Z,57.39
2022-09-29T00:21:14.242Z,57.41
2022-09-29T00:22:16.315Z,57.38
2022-09-29T00:23:18.786Z,57.39
2022-09-29T00:24:20.906Z,57.37
2022-09-29T00:25:22.906Z,57.39
2022-09-29T00:26:25.525Z,57.44
2022-09-29T00:27:27.504Z,57.43
2022-09-29T00:28:32.678Z,57.44
2022-09-29T00:29:34.892Z,57.44
2022-09-29T00:30:37.089Z,57.42
2022-09-29T00:31:39.247Z,57.43
2022-09-29T00:32:42.096Z,57.44
2022-09-29T00:33:44.270Z,57.51
2022-09-29T00:34:46.259Z,57.51
2022-09-29T00:35:58.743Z,57.52
2022-09-29T00:37:00.972Z,57.54
2022-09-29T00:38:03.111Z,57.52
2022-09-29T00:39:05.256Z,57.54
2022-09-29T00:40:08.184Z,57.55
2022-09-29T00:41:14.765Z,57.56
2022-09-29T00:42:18.506Z,57.58
2022-09-29T00:43:26.493Z,57.57
2022-09-29T00:45:01.516Z,57.58
2022-09-29T00:46:04.824Z,57.64
2022-09-29T00:47:07.022Z,57.57
2022-09-29T00:48:12.522Z,57.58
2022-09-29T00:49:18.489Z,57.60
2022-09-29T00:50:42.207Z,57.60
2022-09-29T00:53:04.841Z,57.65
2022-09-29T00:54:08.401Z,57.66
2022-09-29T00:55:20.148Z,57.68
2022-09-29T00:56:22.384Z,57.68
2022-09-29T00:57:27.713Z,57.71
2022-09-29T00:58:36.533Z,57.72
2022-09-29T01:00:06.779Z,57.71
2022-09-29T01:01:09.026Z,57.69
2022-09-29T01:02:12.103Z,57.65
2022-09-29T01:03:16.037Z,57.68
2022-09-29T01:04:18.530Z,57.71
2022-09-29T01:05:27.758Z,57.73
2022-09-29T01:06:34.543Z,57.75
2022-09-29T01:07:36.623Z,57.79
2022-09-29T01:08:49.101Z,57.81
2022-09-29T01:09:51.858Z,57.81
2022-09-29T01:10:54.085Z,57.81
2022-09-29T01:11:57.001Z,57.79
2022-09-29T01:13:00.160Z,57.80
2022-09-29T01:14:04.274Z,57.73
2022-09-29T01:15:08.195Z,57.73
2022-09-29T01:16:12.410Z,57.82
2022-09-29T01:17:14.585Z,57.81
2022-09-29T01:18:16.601Z,57.81
2022-09-29T01:19:22.349Z,57.83
2022-09-29T01:20:25.749Z,57.79
2022-09-29T01:21:49.398Z,57.75
2022-09-29T01:23:04.419Z,57.78
2022-09-29T01:24:38.266Z,57.72
2022-09-29T01:26:03.794Z,57.72
2022-09-29T01:27:39.741Z,57.74
2022-09-29T01:28:57.749Z,57.74
2022-09-29T01:30:06.674Z,57.81
2022-09-29T01:31:30.314Z,57.84
2022-09-29T01:32:52.455Z,57.89
2022-09-29T01:35:44.622Z,57.98
2022-09-29T01:37:18.137Z,58.05
2022-09-29T01:38:27.264Z,58.16
2022-09-29T01:41:25.366Z,58.26
2022-09-29T01:42:33.733Z,58.27
2022-09-29T01:45:15.269Z,58.36
2022-09-29T01:46:23.294Z,58.34
2022-09-29T01:47:31.347Z,58.37
2022-09-29T01:48:36.224Z,58.36
2022-09-29T01:49:41.150Z,58.31
2022-09-29T01:50:47.750Z,58.30
2022-09-29T01:51:56.527Z,58.32
2022-09-29T01:53:03.488Z,58.34
2022-09-29T01:55:24.890Z,58.29
2022-09-29T01:57:51.521Z,58.30
2022-09-29T02:00:09.728Z,58.28
2022-09-29T02:01:14.561Z,58.27
2022-09-29T02:02:20.403Z,58.27
2022-09-29T02:03:38.639Z,58.26
2022-09-29T02:04:46.020Z,58.23
2022-09-29T02:06:06.181Z,58.20
2022-09-29T02:08:26.810Z,58.15
2022-09-29T02:09:32.242Z,58.13
2022-09-29T02:10:37.301Z,58.13
2022-09-29T02:11:40.258Z,58.13
2022-09-29T02:12:42.306Z,58.13
2022-09-29T02:13:57.452Z,58.12
2022-09-29T02:14:59.490Z,58.13
2022-09-29T02:16:02.518Z,58.08
2022-09-29T02:18:35.755Z,58.01
2022-09-29T02:19:41.035Z,57.99
2022-09-29T02:20:43.267Z,57.98
2022-09-29T02:21:45.254Z,57.98
2022-09-29T02:22:47.264Z,57.95
2022-09-29T02:23:51.190Z,58.00
2022-09-29T02:24:54.551Z,57.69
2022-09-29T02:25:57.298Z,57.69
2022-09-29T02:26:59.541Z,58.01
2022-09-29T02:28:01.585Z,58.00
2022-09-29T02:29:04.181Z,58.00
2022-09-29T02:30:07.512Z,58.00
2022-09-29T02:31:09.725Z,57.99
2022-09-29T02:32:12.064Z,58.00
2022-09-29T02:33:24.424Z,57.96
2022-09-29T02:34:27.485Z,57.96
2022-09-29T02:35:36.308Z,57.91
2022-09-29T02:37:05.247Z,57.91
2022-09-29T02:38:13.982Z,58.03
2022-09-29T02:39:41.951Z,57.99
2022-09-29T02:40:59.841Z,57.97
2022-09-29T02:42:21.876Z,57.98
2022-09-29T02:43:27.799Z,57.97
2022-09-29T02:45:57.608Z,58.08
2022-09-29T02:47:12.522Z,58.10
2022-09-29T02:48:41.070Z,58.11
2022-09-29T02:50:14.379Z,58.16
2022-09-29T02:51:23.098Z,58.14
2022-09-29T02:52:28.912Z,58.12
2022-09-29T02:53:51.575Z,58.12
2022-09-29T02:56:14.761Z,58.18
2022-09-29T02:57:38.760Z,58.23
2022-09-29T02:59:07.536Z,58.31
2022-09-29T03:00:12.197Z,58.28
2022-09-29T03:01:15.118Z,58.27
2022-09-29T03:02:22.778Z,58.31
2022-09-29T03:03:25.556Z,58.32
2022-09-29T03:04:28.007Z,58.37
2022-09-29T03:05:29.982Z,58.37
2022-09-29T03:06:32.328Z,58.40
2022-09-29T03:07:35.143Z,58.38
2022-09-29T03:08:37.266Z,58.38
2022-09-29T03:09:39.343Z,58.38
2022-09-29T03:10:41.425Z,58.34
2022-09-29T03:11:43.501Z,58.31
2022-09-29T03:12:45.728Z,58.30
2022-09-29T03:13:48.759Z,58.28
2022-09-29T03:14:50.785Z,58.26
2022-09-29T03:15:52.848Z,58.21
2022-09-29T03:16:55.479Z,58.21
2022-09-29T03:17:57.569Z,58.21
2022-09-29T03:18:59.783Z,58.18
2022-09-29T03:20:01.981Z,58.17
2022-09-29T03:21:04.131Z,58.16
2022-09-29T03:22:06.374Z,58.13
2022-09-29T03:23:08.390Z,58.17
2022-09-29T03:24:10.380Z,58.13
2022-09-29T03:25:12.477Z,58.13
2022-09-29T03:26:14.865Z,58.11
2022-09-29T03:27:16.977Z,58.08
2022-09-29T03:28:20.154Z,58.06
2022-09-29T03:29:22.239Z,58.11
2022-09-29T03:30:26.185Z,58.06
2022-09-29T03:31:29.464Z,58.07
2022-09-29T03:32:31.648Z,58.05
2022-09-29T03:33:33.698Z,58.07
2022-09-29T03:34:35.694Z,58.06
2022-09-29T03:35:41.429Z,58.11
2022-09-29T03:36:42.873Z,58.06
2022-09-29T03:37:45.461Z,58.04
2022-09-29T03:38:47.457Z,58.01
2022-09-29T03:39:49.466Z,58.02
2022-09-29T03:40:51.597Z,58.01
2022-09-29T03:41:54.559Z,58.01
2022-09-29T03:42:57.222Z,58.01
2022-09-29T03:44:00.188Z,58.01
2022-09-29T03:45:02.355Z,58.00
2022-09-29T03:46:04.989Z,57.97
2022-09-29T03:47:07.021Z,57.95
2022-09-29T03:48:09.055Z,57.98
2022-09-29T03:49:11.484Z,57.98
2022-09-29T03:50:14.570Z,57.99
2022-09-29T03:51:17.677Z,57.99
2022-09-29T03:52:19.922Z,57.98
2022-09-29T03:53:22.987Z,58.00
2022-09-29T03:54:25.132Z,58.00
2022-09-29T03:55:27.179Z,58.01
2022-09-29T03:56:29.371Z,58.01
2022-09-29T03:57:31.379Z,58.02
2022-09-29T03:58:34.625Z,58.01
2022-09-29T03:59:36.826Z,58.03
2022-09-29T04:00:38.979Z,58.03
2022-09-29T04:01:41.276Z,58.01
2022-09-29T04:02:43.434Z,58.01
2022-09-29T04:03:45.534Z,58.00
2022-09-29T04:04:48.149Z,57.98
2022-09-29T04:05:50.628Z,57.97
2022-09-29T04:06:52.695Z,57.92
2022-09-29T04:07:54.684Z,57.96
2022-09-29T04:08:56.975Z,57.94
2022-09-29T04:09:58.975Z,57.94
2022-09-29T04:11:01.183Z,57.94
2022-09-29T04:12:04.503Z,57.95
2022-09-29T04:13:08.169Z,57.93
2022-09-29T04:14:10.220Z,57.97
2022-09-29T04:15:12.278Z,57.95
2022-09-29T04:16:14.758Z,57.94
2022-09-29T04:17:17.408Z,57.93
2022-09-29T04:18:19.523Z,57.94
2022-09-29T04:19:22.129Z,57.96
2022-09-29T04:20:24.922Z,57.93
2022-09-29T04:21:28.087Z,57.91
2022-09-29T04:22:30.261Z,57.91
2022-09-29T04:23:33.362Z,57.91
2022-09-29T04:24:35.381Z,57.90
2022-09-29T04:25:37.435Z,57.91
2022-09-29T04:26:40.305Z,57.91
2022-09-29T04:27:42.500Z,57.89
2022-09-29T04:28:45.452Z,57.98
2022-09-29T04:29:47.580Z,57.95
2022-09-29T04:30:49.920Z,57.95
2022-09-29T04:31:52.057Z,57.93
2022-09-29T04:32:55.207Z,57.97
2022-09-29T04:33:57.436Z,57.98
2022-09-29T04:34:59.557Z,58.02
2022-09-29T04:36:02.052Z,58.06
2022-09-29T04:37:04.138Z,58.09
2022-09-29T04:38:06.136Z,58.11
2022-09-29T04:39:08.618Z,58.13
2022-09-29T04:40:12.006Z,58.19
2022-09-29T04:41:16.049Z,58.22
2022-09-29T04:42:19.034Z,58.22
2022-09-29T04:43:21.119Z,58.23
2022-09-29T04:44:23.456Z,58.30
2022-09-29T04:45:26.145Z,58.43
2022-09-29T04:46:28.449Z,58.49
2022-09-29T04:47:30.555Z,58.56
2022-09-29T04:48:36.017Z,58.53
2022-09-29T04:49:37.849Z,58.61
2022-09-29T04:50:40.354Z,58.65
2022-09-29T04:51:42.354Z,58.67
2022-09-29T04:52:44.702Z,58.80
2022-09-29T04:53:46.718Z,58.85
2022-09-29T04:54:49.186Z,58.89
2022-09-29T04:55:51.285Z,58.89
2022-09-29T04:56:53.526Z,58.93
2022-09-29T04:57:55.613Z,59.10
2022-09-29T04:58:58.220Z,59.10
2022-09-29T05:00:02.034Z,59.34
2022-09-29T05:01:06.035Z,59.34
2022-09-29T05:02:09.236Z,59.15
2022-09-29T05:03:11.936Z,59.22
2022-09-29T05:04:14.969Z,59.27
2022-09-29T05:05:17.274Z,59.30
2022-09-29T05:06:20.776Z,59.20
2022-09-29T05:07:24.052Z,59.24
2022-09-29T05:08:26.382Z,59.24
2022-09-29T05:09:33.079Z,59.20
2022-09-29T05:10:32.599Z,59.24
2022-09-29T05:11:35.902Z,59.22
2022-09-29T05:12:37.896Z,59.22
2022-09-29T05:13:40.899Z,59.17
2022-09-29T05:14:42.869Z,59.15
2022-09-29T05:15:44.952Z,59.11
2022-09-29T05:16:47.179Z,59.13
2022-09-29T05:17:50.060Z,59.16
2022-09-29T05:18:52.194Z,59.21
2022-09-29T05:19:54.181Z,59.17
2022-09-29T05:21:16.265Z,59.25
2022-09-29T05:22:01.357Z,59.30
2022-09-29T05:23:03.371Z,59.33
2022-09-29T05:24:05.868Z,59.34
2022-09-29T05:25:09.175Z,59.40
2022-09-29T05:26:13.211Z,59.46
2022-09-29T05:27:16.638Z,59.52
2022-09-29T05:28:19.865Z,59.57
2022-09-29T05:29:22.018Z,59.55
2022-09-29T05:30:24.155Z,59.49
2022-09-29T05:31:26.338Z,59.50
2022-09-29T05:32:29.140Z,59.48
2022-09-29T05:33:32.591Z,59.46
2022-09-29T05:34:34.884Z,59.43
2022-09-29T05:35:37.197Z,59.41
2022-09-29T05:36:39.288Z,59.38
2022-09-29T05:37:41.593Z,59.29
2022-09-29T05:38:43.556Z,59.27
2022-09-29T05:39:45.556Z,59.22
2022-09-29T05:40:49.257Z,59.19
2022-09-29T05:41:51.587Z,59.09
2022-09-29T05:42:53.698Z,59.05
2022-09-29T05:43:55.840Z,59.01
2022-09-29T05:44:57.955Z,58.93
2022-09-29T05:46:02.126Z,58.92
2022-09-29T05:47:05.046Z,58.88
2022-09-29T05:48:07.264Z,58.79
2022-09-29T05:49:09.242Z,58.72
2022-09-29T05:50:12.628Z,58.73
2022-09-29T05:51:19.479Z,58.66
2022-09-29T05:52:21.450Z,58.65
2022-09-29T05:53:23.624Z,58.59
2022-09-29T05:54:25.732Z,58.58
2022-09-29T05:55:27.842Z,58.58
2022-09-29T05:56:31.056Z,58.58
2022-09-29T05:57:33.546Z,58.58
2022-09-29T05:58:36.195Z,58.56
2022-09-29T05:59:39.132Z,58.57
2022-09-29T06:00:41.393Z,58.54
2022-09-29T06:01:43.659Z,58.51
2022-09-29T06:02:45.832Z,58.52
2022-09-29T06:03:48.837Z,58.47
2022-09-29T06:04:50.982Z,58.45
2022-09-29T06:05:52.963Z,58.37
2022-09-29T06:06:55.242Z,58.27
2022-09-29T06:07:57.997Z,58.14
2022-09-29T06:09:00.658Z,58.08
2022-09-29T06:10:03.229Z,58.03
2022-09-29T06:11:06.775Z,57.95
2022-09-29T06:12:08.818Z,57.84
2022-09-29T06:13:11.352Z,57.75
2022-09-29T06:14:13.920Z,57.66
2022-09-29T06:15:16.286Z,57.60
2022-09-29T06:16:21.159Z,57.51
2022-09-29T06:17:23.942Z,57.52
2022-09-29T06:18:26.828Z,57.54
2022-09-29T06:19:28.943Z,57.52
2022-09-29T06:20:31.629Z,57.50
2022-09-29T06:21:34.688Z,57.41
2022-09-29T06:22:37.920Z,57.36
2022-09-29T06:23:40.767Z,57.40
2022-09-29T06:24:42.923Z,57.46
2022-09-29T06:25:45.030Z,57.40
2022-09-29T06:26:47.739Z,57.41
2022-09-29T06:27:50.894Z,57.58
2022-09-29T06:28:57.211Z,57.58
2022-09-29T06:29:59.394Z,57.48
2022-09-29T06:32:16.855Z,57.56
2022-09-29T06:33:18.958Z,57.62
2022-09-29T06:34:22.023Z,57.67
2022-09-29T06:35:25.323Z,57.69
2022-09-29T06:36:41.221Z,57.74
2022-09-29T06:37:44.258Z,57.73
2022-09-29T06:38:47.123Z,57.77
2022-09-29T06:39:49.427Z,57.77
2022-09-29T06:40:52.314Z,57.78
2022-09-29T06:41:55.085Z,57.80
2022-09-29T06:42:57.162Z,57.79
2022-09-29T06:43:59.950Z,57.79
2022-09-29T06:45:02.339Z,57.88
2022-09-29T06:46:04.978Z,57.87
2022-09-29T06:47:07.087Z,57.90
2022-09-29T06:48:10.162Z,57.86
2022-09-29T06:49:12.750Z,57.88
2022-09-29T06:50:19.816Z,57.90
2022-09-29T06:51:21.705Z,57.92
2022-09-29T06:52:26.583Z,57.94
2022-09-29T06:53:36.376Z,57.95
2022-09-29T06:54:31.939Z,57.96
2022-09-29T06:55:33.939Z,57.98
2022-09-29T06:56:36.157Z,58.00
2022-09-29T06:57:38.946Z,58.02
2022-09-29T06:58:41.019Z,58.02
2022-09-29T06:59:43.271Z,58.00
2022-09-29T07:00:49.902Z,58.03
2022-09-29T07:01:51.491Z,58.08
2022-09-29T07:02:54.526Z,58.15
2022-09-29T07:03:58.488Z,58.15
2022-09-29T07:05:00.789Z,58.20
2022-09-29T07:06:19.216Z,58.19
2022-09-29T07:07:13.555Z,57.70
2022-09-29T07:08:15.849Z,57.70
2022-09-29T07:09:18.222Z,57.49
2022-09-29T07:10:21.957Z,56.33
2022-09-29T07:11:24.340Z,55.74
2022-09-29T07:12:26.981Z,55.99
2022-09-29T07:13:30.592Z,56.13
2022-09-29T07:14:33.869Z,55.96
2022-09-29T07:15:35.939Z,55.61
2022-09-29T07:16:38.219Z,55.29
2022-09-29T07:17:41.542Z,54.57
2022-09-29T07:18:46.920Z,54.44
2022-09-29T07:19:50.615Z,54.05
2022-09-29T07:20:53.118Z,53.85
2022-09-29T07:21:57.187Z,53.94
2022-09-29T07:22:59.333Z,53.72
2022-09-29T07:24:02.567Z,53.92
2022-09-29T07:25:49.986Z,53.62
2022-09-29T07:26:30.891Z,54.27
2022-09-29T07:27:33.657Z,54.35
2022-09-29T07:28:36.023Z,54.15
2022-09-29T07:29:41.125Z,54.29
2022-09-29T07:30:43.436Z,54.09
2022-09-29T07:31:51.522Z,54.26
2022-09-29T07:33:00.407Z,54.02
2022-09-29T07:33:53.318Z,53.13
2022-09-29T07:35:05.445Z,53.41
2022-09-29T07:36:08.367Z,54.82
2022-09-29T07:37:11.249Z,55.65
2022-09-29T07:38:13.363Z,55.36
2022-09-29T07:39:15.892Z,56.73
2022-09-29T07:40:20.644Z,57.03
2022-09-29T07:41:22.915Z,57.32
2022-09-29T07:43:03.265Z,56.84
2022-09-29T07:44:06.055Z,57.15
2022-09-29T07:45:09.835Z,57.26
2022-09-29T07:46:14.906Z,57.66
2022-09-29T07:47:17.752Z,57.49
2022-09-29T07:48:20.439Z,57.49
2022-09-29T07:49:22.698Z,57.73
2022-09-29T07:50:25.538Z,58.46
2022-09-29T07:51:27.889Z,58.03
2022-09-29T07:52:29.894Z,57.44
2022-09-29T07:53:33.526Z,58.53
2022-09-29T07:54:35.676Z,59.25
2022-09-29T07:55:38.216Z,58.58
2022-09-29T07:56:41.438Z,59.13
2022-09-29T07:57:46.154Z,58.39
2022-09-29T07:58:50.056Z,58.49
2022-09-29T07:59:53.441Z,59.15
2022-09-29T08:00:56.177Z,59.08
2022-09-29T08:01:59.420Z,58.85
2022-09-29T08:03:02.329Z,57.49
2022-09-29T08:04:04.602Z,58.23
2022-09-29T08:05:07.909Z,57.27
2022-09-29T08:06:12.740Z,57.85
2022-09-29T08:07:15.249Z,57.73
2022-09-29T08:08:18.466Z,56.18
2022-09-29T08:09:29.693Z,57.34
2022-09-29T08:10:27.300Z,57.10
2022-09-29T08:11:33.343Z,56.99
2022-09-29T08:12:43.483Z,57.06
2022-09-29T08:13:41.781Z,57.04
2022-09-29T08:14:44.373Z,57.14
2022-09-29T08:15:47.012Z,57.24
2022-09-29T08:16:49.595Z,55.68
2022-09-29T08:17:52.833Z,56.01
2022-09-29T08:18:55.282Z,56.01
2022-09-29T08:19:58.476Z,56.18
2022-09-29T08:21:03.758Z,56.80
2022-09-29T08:22:06.753Z,57.24
2022-09-29T08:23:08.818Z,57.15
2022-09-29T08:24:12.650Z,57.37
2022-09-29T08:25:16.704Z,57.40
2022-09-29T08:26:26.756Z,57.44
2022-09-29T08:27:24.568Z,57.36
2022-09-29T08:28:32.079Z,56.87
2022-09-29T08:29:43.080Z,56.66
2022-09-29T08:30:35.042Z,54.74
2022-09-29T08:31:37.269Z,55.90
2022-09-29T08:32:39.877Z,56.27
2022-09-29T08:33:41.978Z,56.35
2022-09-29T08:34:43.993Z,56.83
2022-09-29T08:35:48.683Z,56.35
2022-09-29T08:36:51.045Z,56.55
2022-09-29T08:37:54.091Z,56.10
2022-09-29T08:38:56.638Z,56.56
2022-09-29T08:39:59.179Z,56.14
2022-09-29T08:41:03.347Z,55.80
2022-09-29T08:42:21.999Z,54.97
2022-09-29T08:43:37.570Z,55.89
2022-09-29T08:44:43.142Z,55.59
2022-09-29T08:45:59.117Z,55.33
2022-09-29T08:47:07.891Z,55.43
2022-09-29T08:48:18.823Z,55.42
2022-09-29T08:49:38.699Z,54.82
2022-09-29T08:50:44.863Z,53.28
2022-09-29T08:51:51.861Z,53.04
2022-09-29T08:52:55.919Z,54.84
2022-09-29T08:54:03.600Z,55.31
2022-09-29T08:55:21.943Z,55.70
2022-09-29T08:56:24.536Z,56.55
2022-09-29T08:57:27.830Z,55.80
2022-09-29T08:58:31.559Z,56.15
2022-09-29T08:59:35.006Z,56.06
2022-09-29T09:00:54.711Z,56.45
2022-09-29T09:02:07.037Z,55.59
2022-09-29T09:03:33.985Z,55.59
2022-09-29T09:04:57.725Z,56.78
2022-09-29T09:06:28.679Z,56.53
2022-09-29T09:07:40.731Z,55.59
2022-09-29T09:08:50.022Z,56.11
2022-09-29T09:10:09.025Z,55.68
2022-09-29T09:11:43.160Z,56.19
2022-09-29T09:13:06.882Z,57.34
2022-09-29T09:14:19.820Z,57.93
2022-09-29T09:15:25.910Z,57.89
2022-09-29T09:18:29.387Z,57.31
2022-09-29T09:19:47.269Z,51.39
2022-09-29T09:22:15.570Z,57.78
2022-09-29T09:23:35.700Z,55.42
2022-09-29T09:24:50.686Z,57.62
2022-09-29T09:25:54.648Z,55.89
2022-09-29T09:26:57.457Z,56.81
2022-09-29T09:28:20.758Z,56.73
2022-09-29T09:29:37.414Z,56.92
2022-09-29T09:31:59.179Z,56.42
2022-09-29T09:33:04.153Z,56.44
2022-09-29T09:34:16.220Z,56.77
2022-09-29T09:35:23.957Z,56.78
2022-09-29T09:37:02.195Z,56.13
2022-09-29T09:37:56.923Z,56.52
2022-09-29T09:39:02.881Z,56.54
2022-09-29T09:40:29.220Z,56.83
2022-09-29T09:41:35.724Z,56.97
2022-09-29T09:42:39.069Z,56.73
2022-09-29T09:46:37.327Z,57.09
2022-09-29T09:49:15.912Z,56.93
2022-09-29T09:50:19.845Z,56.93
2022-09-29T09:51:41.819Z,55.77
2022-09-29T09:52:48.343Z,56.93
2022-09-29T09:53:52.009Z,55.42
2022-09-29T09:54:57.960Z,56.82
2022-09-29T09:57:40.453Z,56.30
2022-09-29T09:59:20.373Z,56.92
2022-09-29T10:00:34.542Z,57.02
2022-09-29T10:01:37.411Z,56.87
2022-09-29T10:02:44.994Z,56.89
2022-09-29T10:03:47.528Z,56.83
2022-09-29T10:04:52.976Z,56.87
2022-09-29T10:05:55.643Z,56.67
2022-09-29T10:06:57.964Z,56.70
2022-09-29T10:08:01.972Z,56.66
2022-09-29T10:09:04.286Z,56.64
2022-09-29T10:10:13.826Z,56.46
2022-09-29T10:11:29.513Z,56.46
2022-09-29T10:12:32.745Z,56.35
2022-09-29T10:13:35.266Z,55.68
2022-09-29T10:14:37.408Z,55.99
2022-09-29T10:15:45.677Z,56.10
2022-09-29T10:17:06.268Z,56.05
2022-09-29T10:18:32.377Z,55.90
2022-09-29T10:19:59.610Z,55.77
2022-09-29T10:21:02.076Z,55.64
2022-09-29T10:22:14.239Z,55.42
2022-09-29T10:23:19.492Z,55.54
2022-09-29T10:24:29.834Z,55.21
2022-09-29T10:25:33.044Z,55.34
2022-09-29T10:27:53.630Z,55.30
2022-09-29T10:29:00.548Z,55.46
2022-09-29T10:30:04.032Z,54.58
2022-09-29T10:31:26.610Z,55.19
2022-09-29T10:32:32.448Z,55.33
2022-09-29T10:33:34.834Z,54.59
2022-09-29T10:35:50.904Z,55.13
2022-09-29T10:37:04.638Z,55.30
2022-09-29T10:39:41.392Z,55.27
2022-09-29T10:42:25.111Z,55.81
2022-09-29T10:43:39.080Z,56.04
2022-09-29T10:44:43.337Z,56.05
2022-09-29T10:45:49.568Z,55.95
2022-09-29T10:46:54.377Z,56.18
2022-09-29T10:48:00.457Z,56.40
2022-09-29T10:49:18.420Z,56.47
2022-09-29T10:50:22.608Z,56.53
2022-09-29T10:51:25.711Z,56.47
2022-09-29T10:52:27.936Z,56.43
2022-09-29T10:53:40.853Z,56.48
2022-09-29T10:56:18.075Z,54.98
2022-09-29T10:57:23.223Z,55.86
2022-09-29T10:58:44.511Z,55.70
2022-09-29T10:59:36.355Z,55.54
2022-09-29T11:00:41.913Z,55.42
2022-09-29T11:01:49.494Z,55.37
2022-09-29T11:02:54.406Z,55.22
2022-09-29T11:04:28.666Z,55.00
2022-09-29T11:05:30.711Z,54.00
2022-09-29T11:06:43.627Z,54.15
2022-09-29T11:07:45.265Z,54.32
2022-09-29T11:10:27.424Z,53.90
2022-09-29T11:11:34.879Z,53.53
2022-09-29T11:12:37.813Z,53.68
2022-09-29T11:14:00.276Z,53.51
2022-09-29T11:15:23.298Z,53.25
2022-09-29T11:16:45.718Z,53.48
2022-09-29T11:17:50.976Z,50.46
2022-09-29T11:18:54.441Z,53.07
2022-09-29T11:21:23.954Z,53.79
2022-09-29T11:24:12.991Z,54.67
2022-09-29T11:25:38.776Z,53.86
2022-09-29T11:26:54.627Z,54.53
2022-09-29T11:28:03.524Z,54.60
2022-09-29T11:29:29.133Z,54.72
2022-09-29T11:32:14.786Z,54.75
2022-09-29T11:35:01.079Z,54.85
2022-09-29T11:37:36.146Z,54.77
2022-09-29T11:38:43.030Z,54.88
2022-09-29T11:40:05.519Z,54.22
2022-09-29T11:41:45.025Z,54.19
2022-09-29T11:43:10.814Z,54.13
2022-09-29T11:44:35.449Z,54.60
2022-09-29T11:45:47.394Z,54.52
2022-09-29T11:46:56.664Z,54.63
2022-09-29T11:49:33.526Z,54.74
2022-09-29T11:50:52.530Z,54.77
2022-09-29T11:52:11.164Z,54.74
2022-09-29T11:55:29.166Z,53.89
2022-09-29T11:56:49.935Z,53.63
2022-09-29T11:59:35.484Z,53.29
2022-09-29T12:01:00.463Z,52.69
2022-09-29T12:02:29.692Z,53.12
2022-09-29T12:03:39.706Z,52.77
2022-09-29T12:05:01.714Z,53.01
2022-09-29T12:06:28.654Z,52.84
2022-09-29T12:09:11.777Z,52.42
2022-09-29T12:10:52.194Z,52.31
2022-09-29T12:12:25.223Z,52.62
2022-09-29T12:13:52.266Z,52.67
2022-09-29T12:15:07.301Z,52.75
2022-09-29T12:17:24.088Z,52.14
2022-09-29T12:18:34.454Z,52.01
2022-09-29T12:19:38.244Z,51.27
2022-09-29T12:20:44.175Z,51.93
2022-09-29T12:21:51.205Z,52.18
2022-09-29T12:22:54.323Z,52.18
2022-09-29T12:23:57.559Z,52.01
2022-09-29T12:25:01.953Z,51.64
2022-09-29T12:26:09.541Z,52.29
2022-09-29T12:27:16.258Z,52.23
2022-09-29T12:30:01.450Z,51.94
2022-09-29T12:32:42.993Z,52.01
2022-09-29T12:33:56.086Z,52.31
2022-09-29T12:35:02.263Z,51.61
2022-09-29T12:36:34.323Z,52.57
2022-09-29T12:37:49.222Z,52.79
2022-09-29T12:38:52.069Z,52.87
2022-09-29T12:40:32.105Z,53.01
2022-09-29T12:44:32.823Z,52.79
2022-09-29T12:45:57.238Z,52.87
2022-09-29T12:47:07.037Z,52.94
2022-09-29T12:48:37.303Z,51.29
2022-09-29T12:51:13.682Z,52.70
2022-09-29T12:52:19.488Z,51.68
2022-09-29T12:53:37.362Z,52.35
2022-09-29T12:54:43.286Z,52.15
2022-09-29T12:55:51.836Z,52.33
2022-09-29T12:57:00.901Z,51.05
2022-09-29T12:58:05.434Z,52.31
2022-09-29T12:59:48.500Z,51.09
2022-09-29T13:02:49.778Z,52.16
2022-09-29T13:04:01.943Z,52.46
2022-09-29T13:05:31.353Z,52.54
2022-09-29T13:06:52.540Z,52.66
2022-09-29T13:08:27.375Z,52.49
2022-09-29T13:09:43.568Z,52.83
2022-09-29T13:10:58.103Z,52.54
2022-09-29T13:13:37.126Z,53.06
2022-09-29T13:14:53.919Z,52.89
2022-09-29T13:16:15.069Z,53.04
2022-09-29T13:17:54.626Z,53.25
2022-09-29T13:19:18.322Z,53.32
2022-09-29T13:22:14.593Z,52.54
2022-09-29T13:23:52.005Z,53.18
2022-09-29T13:25:07.492Z,52.72
2022-09-29T13:27:44.806Z,52.46
2022-09-29T13:28:52.922Z,52.65
2022-09-29T13:30:14.895Z,51.55
2022-09-29T13:31:20.917Z,51.29
2022-09-29T13:32:24.095Z,52.88
2022-09-29T13:33:26.652Z,52.61
2022-09-29T13:35:45.646Z,52.23
2022-09-29T13:36:50.930Z,52.49
2022-09-29T13:37:55.280Z,52.37
2022-09-29T13:38:58.894Z,52.61
2022-09-29T13:40:07.919Z,52.69
2022-09-29T13:41:12.239Z,52.99
2022-09-29T13:42:38.037Z,51.98
2022-09-29T13:43:53.420Z,52.82
2022-09-29T13:45:22.641Z,52.67
2022-09-29T13:46:28.874Z,52.39
2022-09-29T13:47:32.592Z,52.41
2022-09-29T13:48:35.473Z,51.94
2022-09-29T13:49:37.613Z,52.35
2022-09-29T13:50:52.096Z,52.43
2022-09-29T13:52:13.378Z,52.31
2022-09-29T13:53:25.063Z,52.49
2022-09-29T13:54:35.752Z,52.32
2022-09-29T13:57:23.788Z,52.24
2022-09-29T14:00:00.105Z,51.99
2022-09-29T14:01:04.340Z,52.81
2022-09-29T14:02:33.883Z,50.92
2022-09-29T14:03:40.173Z,52.72
2022-09-29T14:04:45.551Z,53.07
2022-09-29T14:05:53.703Z,53.29
2022-09-29T14:06:58.578Z,53.47
2022-09-29T14:09:20.781Z,54.19
2022-09-29T14:10:27.739Z,53.87
2022-09-29T14:11:42.763Z,54.40
2022-09-29T14:12:51.487Z,54.59
2022-09-29T14:13:56.646Z,52.57
2022-09-29T14:14:59.309Z,54.75
2022-09-29T14:16:20.685Z,54.83
2022-09-29T14:17:26.804Z,54.91
2022-09-29T14:18:35.426Z,54.63
2022-09-29T14:19:56.484Z,54.31
2022-09-29T14:22:37.646Z,54.94
2022-09-29T14:23:48.696Z,54.83
2022-09-29T14:24:52.663Z,54.64
2022-09-29T14:25:55.803Z,54.74
2022-09-29T14:27:20.050Z,54.44
2022-09-29T14:28:24.585Z,54.27
2022-09-29T14:29:28.223Z,54.34
2022-09-29T14:30:43.117Z,53.84
2022-09-29T14:31:48.719Z,51.43
2022-09-29T14:32:53.942Z,53.25
2022-09-29T14:33:56.695Z,53.63
2022-09-29T14:34:59.343Z,53.63
2022-09-29T14:36:13.375Z,53.47
2022-09-29T14:37:21.045Z,53.37
2022-09-29T14:38:32.122Z,53.07
2022-09-29T14:39:35.167Z,51.49
2022-09-29T14:40:37.547Z,52.52
2022-09-29T14:41:45.296Z,51.28
2022-09-29T14:42:48.499Z,52.04
2022-09-29T14:43:54.533Z,52.75
2022-09-29T14:44:58.109Z,52.34
2022-09-29T14:46:24.712Z,51.14
2022-09-29T14:47:33.951Z,52.48
2022-09-29T14:48:39.910Z,52.21
2022-09-29T14:50:02.666Z,52.25
2022-09-29T14:51:20.942Z,52.04
2022-09-29T14:52:39.039Z,52.13
2022-09-29T14:54:00.186Z,51.89
2022-09-29T14:55:17.501Z,51.57
2022-09-29T14:58:09.804Z,51.20
2022-09-29T14:59:37.834Z,51.59
2022-09-29T15:02:23.832Z,51.68
2022-09-29T15:03:33.024Z,51.88
2022-09-29T15:04:39.531Z,51.83
2022-09-29T15:05:42.655Z,52.12
2022-09-29T15:06:46.733Z,50.57
2022-09-29T15:07:49.980Z,51.50
2022-09-29T15:09:03.500Z,52.24
2022-09-29T15:10:08.191Z,51.73
2022-09-29T15:11:36.091Z,52.16
2022-09-29T15:12:38.463Z,52.25
2022-09-29T15:13:40.729Z,52.08
2022-09-29T15:14:44.092Z,51.20
2022-09-29T15:15:47.442Z,51.88
2022-09-29T15:18:51.908Z,52.01
2022-09-29T15:20:10.033Z,51.20
2022-09-29T15:21:22.487Z,51.76
2022-09-29T15:22:51.883Z,50.69
2022-09-29T15:23:57.687Z,51.64
2022-09-29T15:25:19.889Z,51.64
2022-09-29T15:26:22.509Z,48.93
2022-09-29T15:27:24.787Z,51.47
2022-09-29T15:28:36.354Z,51.17
2022-09-29T15:29:39.598Z,51.31
2022-09-29T15:30:41.928Z,51.22
2022-09-29T15:31:45.480Z,51.20
2022-09-29T15:32:49.002Z,50.19
2022-09-29T15:33:52.200Z,51.10
2022-09-29T15:35:06.005Z,50.67
2022-09-29T15:36:18.582Z,50.82
2022-09-29T15:37:20.705Z,50.41
2022-09-29T15:38:26.810Z,50.30
2022-09-29T15:39:36.012Z,50.69
2022-09-29T15:40:38.437Z,50.77
2022-09-29T15:41:41.184Z,50.38
2022-09-29T15:42:43.375Z,50.82
2022-09-29T15:43:52.393Z,50.89
2022-09-29T15:44:59.657Z,50.38